Time;durP1;ratioP1;P1;durP2;ratioP2;P2;SDS_P1;SDS_P2;PMS_P1;PMS_P2;Temp;Humidity;BMP_temperature;BMP_pressure;BME280_temperature;BME280_humidity;BME280_pressure;Samples;Min_cycle;Max_cycle;Signal;HPM_P1;HPM_P2
2021/06/13 07:00:59;;;;;;;6.80;2.75;;;;;;;24.44;41.85;99674.53;5700173;23;20142;-70
2021/06/13 07:03:25;;;;;;;9.00;3.00;;;;;;;25.27;38.57;99665.78;4954743;28;20090;-70
2021/06/13 07:05:50;;;;;;;6.78;2.67;;;;;;;23.14;43.58;99680.22;4954668;28;20026;-70
2021/06/13 07:08:15;;;;;;;6.53;3.05;;;;;;;27.27;36.60;99675.19;4954296;28;20027;-70
2021/06/13 07:10:41;;;;;;;6.28;2.65;;;;;;;27.03;36.36;99680.44;4951584;28;20059;-69
2021/06/13 07:13:06;;;;;;;5.35;2.95;;;;;;;26.23;37.59;99687.78;4940508;29;20432;-69
2021/06/13 07:15:32;;;;;;;6.80;3.08;;;;;;;21.44;45.69;99703.88;4941888;29;20027;-69
2021/06/13 07:17:57;;;;;;;5.72;2.80;;;;;;;21.31;49.05;99700.97;4940982;29;20095;-69
2021/06/13 07:20:23;;;;;;;8.38;3.00;;;;;;;21.58;48.24;99704.09;4955958;28;20086;-69
2021/06/13 07:22:48;;;;;;;7.13;3.28;;;;;;;21.33;47.99;99700.91;4941170;29;20115;-70
2021/06/13 07:25:13;;;;;;;5.05;2.78;;;;;;;20.92;49.61;99701.84;4941079;29;20061;-70
2021/06/13 07:27:40;;;;;;;6.32;3.22;;;;;;;20.67;50.18;99720.53;4940668;29;20038;-70
2021/06/13 07:30:12;;;;;;;5.13;2.78;;;;;;;20.46;50.71;99705.66;4941157;29;20031;-70
2021/06/13 07:32:37;;;;;;;8.98;3.38;;;;;;;21.27;50.19;99702.00;4941000;28;20443;-69
2021/06/13 07:35:05;;;;;;;7.68;3.30;;;;;;;24.28;42.62;99701.06;4940760;29;20038;-70
2021/06/13 07:37:30;;;;;;;5.80;2.42;;;;;;;25.46;39.70;99701.75;4940469;29;20032;-70
2021/06/13 07:39:56;;;;;;;7.22;2.85;;;;;;;27.74;36.18;99694.81;4940697;29;20086;-70
2021/06/13 07:42:21;;;;;;;6.97;2.22;;;;;;;26.85;36.24;99701.22;4940774;28;20035;-70
2021/06/13 07:44:48;;;;;;;6.75;2.58;;;;;;;24.84;39.58;99704.72;4940688;29;20031;-71
2021/06/13 07:47:13;;;;;;;7.60;2.47;;;;;;;26.38;35.69;99697.34;4940765;29;20035;-70
2021/06/13 07:49:39;;;;;;;7.78;2.53;;;;;;;26.91;35.90;99711.41;4940748;29;20038;-70
2021/06/13 07:52:04;;;;;;;3.50;2.20;;;;;;;28.00;33.97;99705.38;4940371;29;20488;-71
2021/06/13 07:54:30;;;;;;;4.93;2.17;;;;;;;29.10;32.34;99708.34;4940748;29;20039;-70
2021/06/13 07:56:56;;;;;;;6.45;2.33;;;;;;;31.09;28.78;99712.22;4934060;28;20673;-71
2021/06/13 07:59:21;;;;;;;6.65;2.08;;;;;;;27.26;33.92;99716.06;4940613;29;20031;-70
2021/06/13 08:01:47;;;;;;;7.32;2.22;;;;;;;30.63;29.22;99710.84;4940093;29;20445;-70
2021/06/13 08:04:12;;;;;;;9.07;2.35;;;;;;;29.75;32.07;99712.03;4940322;29;20059;-70
2021/06/13 08:06:37;;;;;;;8.63;2.40;;;;;;;30.05;30.21;99715.78;4940100;29;20377;-70
2021/06/13 08:09:03;;;;;;;14.68;3.13;;;;;;;25.54;37.54;99728.66;4940174;29;20038;-70
2021/06/13 08:11:29;;;;;;;6.85;2.80;;;;;;;25.08;39.11;99723.59;4940140;28;20066;-70
2021/06/13 08:13:55;;;;;;;5.60;2.17;;;;;;;26.02;36.47;99721.13;4940406;28;21420;-70
2021/06/13 08:16:20;;;;;;;7.15;2.80;;;;;;;25.08;38.53;99724.44;4939757;29;20023;-70
2021/06/13 08:18:46;;;;;;;5.65;2.40;;;;;;;27.80;33.54;99709.50;4939978;29;20037;-70
2021/06/13 08:21:11;;;;;;;9.90;2.30;;;;;;;29.32;32.55;99718.16;4940008;29;20508;-70
2021/06/13 08:23:36;;;;;;;5.18;2.25;;;;;;;24.06;39.36;99718.22;4939808;29;20475;-70
2021/06/13 08:26:02;;;;;;;5.18;2.60;;;;;;;25.06;38.75;99717.53;4940322;28;21297;-70
2021/06/13 08:28:28;;;;;;;6.18;2.50;;;;;;;27.81;33.93;99722.72;4939873;29;21460;-70
2021/06/13 08:30:53;;;;;;;7.22;2.85;;;;;;;25.55;36.77;99727.69;4939842;28;20059;-70
2021/06/13 08:33:19;;;;;;;7.03;2.70;;;;;;;25.21;37.16;99719.22;4940057;29;20065;-70
2021/06/13 08:35:44;;;;;;;5.82;3.00;;;;;;;26.22;36.38;99717.97;4939685;29;20118;-70
2021/06/13 08:38:10;;;;;;;7.35;2.80;;;;;;;25.96;36.59;99721.50;4939598;29;20472;-70
2021/06/13 08:40:36;;;;;;;6.25;2.50;;;;;;;28.24;32.72;99708.84;4939662;29;20485;-70
2021/06/13 08:43:02;;;;;;;4.93;2.13;;;;;;;28.80;31.81;99714.28;4940025;28;20031;-70
2021/06/13 08:45:31;;;;;;;5.60;2.42;;;;;;;27.90;32.77;99713.19;4939706;29;20404;-70
2021/06/13 08:47:58;;;;;;;6.40;2.40;;;;;;;24.60;38.46;99723.00;4939611;28;20031;-70
2021/06/13 08:50:24;;;;;;;6.07;2.33;;;;;;;26.47;36.92;99711.84;4939841;28;20499;-73
2021/06/13 08:52:51;;;;;;;5.47;2.33;;;;;;;28.26;32.71;99712.22;4939698;29;20070;-70
2021/06/13 08:55:17;;;;;;;5.57;2.22;;;;;;;29.69;30.86;99704.53;4939415;29;20038;-70
2021/06/13 08:57:43;;;;;;;6.93;2.72;;;;;;;30.16;29.43;99713.94;4939229;29;20620;-73
2021/06/13 09:00:21;;;;;;;10.05;2.60;;;;;;;29.63;29.46;99715.69;4939550;28;20122;-70
2021/06/13 09:02:47;;;;;;;5.93;2.80;;;;;;;30.70;28.28;99709.34;4939511;29;20114;-70
2021/06/13 09:05:13;;;;;;;5.15;2.03;;;;;;;31.05;27.51;99705.44;4939325;29;20024;-70
2021/06/13 09:07:55;;;;;;;9.50;2.70;;;;;;;28.13;32.34;99706.13;4939212;29;20114;-73
2021/06/13 09:10:23;;;;;;;4.60;2.33;;;;;;;29.41;31.47;99706.75;4939716;28;20028;-73
2021/06/13 09:12:49;;;;;;;6.40;2.10;;;;;;;28.01;32.89;99717.72;4939427;28;20089;-70
2021/06/13 09:15:16;;;;;;;11.77;2.22;;;;;;;28.60;32.23;99710.50;4939414;29;20762;-70
2021/06/13 09:17:42;;;;;;;6.63;2.40;;;;;;;26.98;34.37;99726.94;4939136;28;20058;-73
2021/06/13 09:20:23;;;;;;;7.88;2.10;;;;;;;30.80;27.67;99712.97;4939347;29;20055;-73
2021/06/13 09:23:08;;;;;;;6.63;2.08;;;;;;;31.11;29.08;99702.22;4939157;28;20094;-73
2021/06/13 09:25:34;;;;;;;5.57;2.33;;;;;;;28.59;31.58;99710.63;4939334;29;20019;-70
2021/06/13 09:28:32;;;;;;;11.07;2.35;;;;;;;28.12;32.93;99710.59;4904799;28;20085;-73
2021/06/13 09:30:57;;;;;;;3.50;1.95;;;;;;;28.09;32.81;99712.63;4958195;28;20035;-75
2021/06/13 09:33:50;;;;;;;5.90;2.33;;;;;;;27.04;35.05;99711.41;4958386;28;20039;-75
2021/06/13 09:36:19;;;;;;;7.18;2.22;;;;;;;29.23;31.11;99708.22;4958559;28;20046;-70
2021/06/13 09:38:47;;;;;;;6.45;2.50;;;;;;;30.58;28.41;99710.41;4961965;28;20507;-70
2021/06/13 09:41:18;;;;;;;8.15;2.17;;;;;;;30.45;29.09;99711.44;4962316;28;20152;-73
2021/06/13 09:43:47;;;;;;;6.65;2.30;;;;;;;29.35;29.97;99707.25;4962087;28;20145;-72
2021/06/13 09:46:16;;;;;;;;;;;;;;;30.06;29.20;99710.31;4962438;28;20080;-72
2021/06/13 09:48:44;;;;;;;7.50;2.92;;;;;;;30.50;30.14;99710.22;4961797;28;19926;-73
2021/06/13 09:51:13;;;;;;;3.65;2.00;;;;;;;30.61;29.49;99707.47;4962056;28;20400;-70
2021/06/13 09:53:45;;;;;;;;;;;;;;;31.55;27.47;99713.50;4962522;28;20034;-73
2021/06/13 09:56:13;;;;;;;5.13;2.03;;;;;;;28.17;31.11;99708.44;4961583;28;20000;-73
2021/06/13 09:58:55;;;;;;;8.60;2.10;;;;;;;30.98;27.38;99716.69;4961754;28;20037;-73
2021/06/13 10:01:25;;;;;;;4.60;2.03;;;;;;;30.37;28.30;99711.28;4961837;28;20039;-73
2021/06/13 10:03:52;;;;;;;6.80;2.20;;;;;;;30.88;27.52;99723.81;4961723;28;20515;-70
2021/06/13 10:06:19;;;;;;;3.85;1.65;;;;;;;30.74;27.80;99716.16;4961738;28;20045;-70
2021/06/13 10:08:46;;;;;;;7.65;1.88;;;;;;;30.35;29.81;99723.91;4961491;28;20027;-70
2021/06/13 10:11:12;;;;;;;3.08;1.58;;;;;;;32.11;25.99;99720.91;4961725;28;20042;-70
2021/06/13 10:13:41;;;;;;;8.95;2.40;;;;;;;31.13;27.75;99724.34;4961648;28;20034;-70
2021/06/13 10:16:08;;;;;;;8.00;1.90;;;;;;;31.13;26.56;99730.53;4961193;28;20102;-70
2021/06/13 10:18:36;;;;;;;4.80;1.77;;;;;;;30.31;27.86;99733.16;4961456;28;20248;-70
2021/06/13 10:21:12;;;;;;;7.93;1.70;;;;;;;31.57;25.51;99731.13;4961590;28;20053;-70
2021/06/13 10:23:41;;;;;;;4.55;1.67;;;;;;;31.10;26.05;99730.00;4961378;28;20039;-69
2021/06/13 10:26:08;;;;;;;4.60;1.40;;;;;;;30.98;26.46;99722.03;4961359;28;20023;-70
2021/06/13 10:28:34;;;;;;;5.00;1.75;;;;;;;29.50;28.65;99726.53;4960998;28;20404;-70
2021/06/13 10:31:01;;;;;;;5.25;1.60;;;;;;;30.82;28.26;99721.69;4961270;28;20034;-70
2021/06/13 10:33:27;;;;;;;5.15;1.90;;;;;;;31.04;27.32;99723.31;4961325;28;20034;-70
2021/06/13 10:35:56;;;;;;;6.32;2.03;;;;;;;31.06;27.13;99717.84;4961269;28;20038;-70
2021/06/13 10:38:21;;;;;;;4.80;1.80;;;;;;;30.91;27.63;99712.88;4960910;28;20028;-70
2021/06/13 10:40:47;;;;;;;7.32;2.00;;;;;;;25.74;34.71;99728.19;4961346;28;20038;-70
2021/06/13 10:43:20;;;;;;;10.25;2.65;;;;;;;24.52;36.90;99725.28;4960914;28;20039;-69
2021/06/13 10:45:46;;;;;;;2.80;1.45;;;;;;;26.57;34.67;99717.38;4960818;28;20034;-70
2021/06/13 10:48:11;;;;;;;7.85;1.95;;;;;;;28.37;30.92;99704.28;4960062;28;20121;-70
2021/06/13 10:50:38;;;;;;;3.75;1.50;;;;;;;29.20;29.84;99708.47;4960897;28;20551;-70
2021/06/13 10:53:06;;;;;;;5.47;1.95;;;;;;;26.39;33.81;99709.69;4960993;28;20035;-70
2021/06/13 10:55:52;;;;;;;8.18;2.30;;;;;;;26.75;34.03;99705.47;4960885;28;20030;-70
2021/06/13 10:58:50;;;;;;;11.88;2.35;;;;;;;25.31;36.02;99720.34;4960630;28;20066;-70
2021/06/13 11:01:38;;;;;;;3.93;2.23;;;;;;;27.21;33.10;99702.22;4960699;28;20066;-70
2021/06/13 11:04:07;;;;;;;8.02;2.40;;;;;;;25.68;36.31;99707.38;4960885;28;20399;-73
2021/06/13 11:06:40;;;;;;;4.53;1.73;;;;;;;25.48;35.21;99705.13;4960408;28;20031;-74
2021/06/13 11:09:10;;;;;;;4.68;1.77;;;;;;;28.01;31.46;99696.41;4960589;28;20035;-73
2021/06/13 11:11:36;;;;;;;;;;;;;;;28.36;30.05;99686.59;4961263;28;20026;-73
2021/06/13 11:14:26;;;;;;;4.30;1.42;;;;;;;28.38;29.28;99690.00;4960621;28;19922;-73
2021/06/13 11:16:59;;;;;;;7.95;2.28;;;;;;;29.49;28.36;99691.91;4960177;28;20039;-76
2021/06/13 11:19:32;;;;;;;3.58;1.80;;;;;;;26.84;32.35;99698.66;4961132;28;20034;-73
2021/06/13 11:22:16;;;;;;;5.18;1.42;;;;;;;27.81;32.06;99689.91;4960862;28;20634;-74
2021/06/13 11:24:50;;;;;;;6.88;1.63;;;;;;;27.64;29.98;99694.63;4960662;28;20031;-72
2021/06/13 11:27:15;;;;;;;4.00;1.35;;;;;;;27.81;29.40;99696.09;4960258;28;20804;-78
2021/06/13 11:29:53;;;;;;;5.50;1.40;;;;;;;26.86;29.49;99696.75;4960804;28;20111;-81
2021/06/13 11:32:56;;;;;;;2.60;1.40;;;;;;;26.93;31.54;99682.03;4960694;28;20034;-77
2021/06/13 11:35:29;;;;;;;5.40;2.40;;;;;;;25.73;34.51;99685.84;4960336;28;20178;-73
2021/06/13 11:38:11;;;;;;;7.32;1.80;;;;;;;25.40;35.11;99691.53;4960504;28;20416;-78
2021/06/13 11:40:57;;;;;;;4.78;1.67;;;;;;;26.98;30.61;99689.69;4960038;28;20122;-79
2021/06/13 11:43:32;;;;;;;4.65;1.65;;;;;;;25.72;33.78;99679.63;4959654;28;20042;-74
2021/06/13 11:46:03;;;;;;;5.30;1.77;;;;;;;25.42;32.44;99679.00;4960016;28;20806;-74
2021/06/13 11:48:31;;;;;;;3.42;1.70;;;;;;;25.64;33.06;99684.63;4959866;28;20022;-74
2021/06/13 11:51:10;;;;;;;3.53;1.50;;;;;;;25.41;32.55;99677.31;4960131;28;20038;-74
2021/06/13 11:53:58;;;;;;;4.60;1.65;;;;;;;27.15;29.48;99673.41;4959815;28;20073;-74
2021/06/13 11:56:36;;;;;;;4.85;2.00;;;;;;;25.93;32.13;99668.59;4959566;28;20042;-74
2021/06/13 11:59:17;;;;;;;4.60;1.50;;;;;;;26.10;32.45;99676.25;4959131;28;20034;-70
2021/06/13 12:01:51;;;;;;;3.30;1.48;;;;;;;24.03;34.07;99678.69;4959480;28;20130;-70
2021/06/13 12:04:17;;;;;;;6.00;1.65;;;;;;;25.29;31.45;99679.81;4959467;28;20023;-70
2021/06/13 12:06:43;;;;;;;2.83;1.38;;;;;;;23.82;33.27;99683.41;4959284;28;20025;-70
2021/06/13 12:09:20;;;;;;;2.15;1.40;;;;;;;25.00;32.51;99678.13;4959472;28;20481;-70
2021/06/13 12:11:55;;;;;;;2.92;1.40;;;;;;;23.82;34.51;99688.72;4959363;28;20038;-70
2021/06/13 12:14:38;;;;;;;4.03;1.67;;;;;;;24.62;33.44;99678.72;4959536;28;21261;-70
2021/06/13 12:17:19;;;;;;;4.78;1.65;;;;;;;23.85;36.63;99671.81;4959217;28;20393;-70
2021/06/13 12:19:55;;;;;;;3.60;1.42;;;;;;;22.96;35.32;99681.22;4959288;28;20137;-69
2021/06/13 12:22:31;;;;;;;2.65;1.30;;;;;;;24.04;33.34;99679.53;4959323;28;20046;-70
2021/06/13 12:27:40;;;;;;;3.70;1.20;;;;;;;23.66;29.01;99677.31;4959069;28;20091;-70
2021/06/13 12:30:14;;;;;;;2.10;1.38;;;;;;;22.96;33.26;99679.41;4959525;28;20034;-70
2021/06/13 12:32:41;;;;;;;3.47;1.58;;;;;;;23.77;33.38;99663.47;4959103;28;20026;-70
2021/06/13 12:35:12;;;;;;;2.75;1.50;;;;;;;24.59;32.61;99662.97;4958214;28;20185;-69
2021/06/13 12:37:38;;;;;;;7.53;1.35;;;;;;;23.72;31.08;99661.06;4958619;28;20041;-69
2021/06/13 12:40:09;;;;;;;3.28;1.10;;;;;;;23.78;31.65;99665.16;4959085;28;20973;-70
2021/06/13 12:42:36;;;;;;;2.33;1.13;;;;;;;23.94;30.15;99663.34;4958679;28;20336;-70
2021/06/13 12:45:09;;;;;;;4.53;1.88;;;;;;;24.06;32.73;99659.09;4958910;28;20023;-70
2021/06/13 12:47:36;;;;;;;5.05;1.63;;;;;;;23.39;32.61;99657.69;4957083;28;20055;-70
2021/06/13 12:50:03;;;;;;;4.25;1.27;;;;;;;24.56;32.60;99647.25;4957350;28;20785;-70
2021/06/13 12:52:28;;;;;;;2.83;1.08;;;;;;;24.20;28.74;99659.13;4957169;28;20041;-70
2021/06/13 12:55:02;;;;;;;3.28;0.90;;;;;;;23.84;25.80;99649.78;4957435;28;20027;-70
2021/06/13 12:57:28;;;;;;;4.22;1.50;;;;;;;23.51;27.75;99651.72;4956810;28;20026;-70
2021/06/13 12:59:54;;;;;;;2.03;1.10;;;;;;;23.70;27.92;99647.09;4957221;28;20522;-70
2021/06/13 13:02:20;;;;;;;2.28;0.93;;;;;;;23.81;30.91;99654.41;4958319;28;20041;-70
2021/06/13 13:04:48;;;;;;;1.30;1.15;;;;;;;23.77;33.16;99648.44;4952862;28;20036;-70
2021/06/13 13:07:32;;;;;;;5.30;1.83;;;;;;;24.25;31.52;99649.09;4958481;28;20460;-70
2021/06/13 13:10:01;;;;;;;3.03;1.20;;;;;;;23.70;32.78;99640.94;4957834;28;20035;-70
2021/06/13 13:12:26;;;;;;;5.50;1.30;;;;;;;23.57;30.83;99643.41;4958610;28;20027;-70
2021/06/13 13:15:12;;;;;;;2.08;1.00;;;;;;;24.55;29.50;99640.25;4959231;28;20158;-74
2021/06/13 13:17:39;;;;;;;1.20;1.00;;;;;;;24.17;29.41;99646.06;4958766;28;20115;-74
2021/06/13 13:20:21;;;;;;;1.52;1.42;;;;;;;24.67;29.24;99644.81;4958616;28;20027;-74
2021/06/13 13:22:48;;;;;;;2.38;1.20;;;;;;;25.40;28.54;99643.75;4958360;28;20514;-74
2021/06/13 13:25:21;;;;;;;2.17;1.10;;;;;;;25.15;28.82;99650.66;4958302;28;20397;-74
2021/06/13 13:27:48;;;;;;;1.67;1.20;;;;;;;24.74;30.13;99648.78;4958310;28;20033;-74
2021/06/13 13:30:32;;;;;;;7.28;1.27;;;;;;;24.68;30.10;99646.50;4958367;28;20038;-74
2021/06/13 13:33:01;;;;;;;5.85;3.88;;;;;;;24.93;29.07;99644.97;4958539;28;20030;-74
2021/06/13 13:35:30;;;;;;;4.07;1.50;;;;;;;24.54;30.02;99649.16;4958164;28;20428;-73
2021/06/13 13:37:57;;;;;;;7.53;1.40;;;;;;;24.93;29.89;99632.56;4958425;28;20034;-74
2021/06/13 13:40:23;;;;;;;2.83;0.90;;;;;;;24.94;30.73;99630.75;4958273;28;20113;-74
2021/06/13 13:43:00;;;;;;;4.78;1.52;;;;;;;24.29;31.58;99634.75;4958568;28;20404;-74
2021/06/13 13:45:27;;;;;;;2.17;1.00;;;;;;;24.52;31.75;99628.06;4958438;28;20039;-74
2021/06/13 13:48:04;;;;;;;8.73;1.25;;;;;;;24.68;31.17;99616.50;4958168;28;20123;-74
2021/06/13 13:50:34;;;;;;;4.43;1.35;;;;;;;25.21;30.10;99613.13;4958241;28;20496;-74
2021/06/13 13:53:16;;;;;;;4.75;1.20;;;;;;;25.21;30.70;99615.78;4958019;28;20030;-74
2021/06/13 13:55:50;;;;;;;3.25;1.38;;;;;;;25.36;30.65;99620.06;4958120;28;20503;-74
2021/06/13 13:58:20;;;;;;;4.88;1.35;;;;;;;25.29;30.69;99616.13;4958112;28;20546;-74
2021/06/13 14:00:46;;;;;;;2.22;1.00;;;;;;;24.81;31.33;99615.66;4957932;28;20423;-74
2021/06/13 14:03:11;;;;;;;5.55;1.33;;;;;;;25.40;30.90;99610.13;4957977;28;20042;-74
2021/06/13 14:05:37;;;;;;;5.20;1.48;;;;;;;25.04;31.50;99611.50;4958231;28;20405;-74
2021/06/13 14:08:03;;;;;;;4.13;1.20;;;;;;;25.44;30.23;99613.44;4957934;28;20030;-74
2021/06/13 14:10:28;;;;;;;3.20;1.40;;;;;;;25.52;31.33;99608.44;4957817;28;20037;-74
2021/06/13 14:12:54;;;;;;;2.80;1.25;;;;;;;24.18;32.16;99610.72;4958052;28;20121;-74
2021/06/13 14:15:19;;;;;;;5.88;1.33;;;;;;;25.11;30.90;99599.59;4957933;28;20031;-74
2021/06/13 14:17:44;;;;;;;3.50;1.10;;;;;;;24.99;31.84;99602.16;4957790;28;20027;-74
2021/06/13 14:20:10;;;;;;;2.90;1.25;;;;;;;25.21;31.34;99601.66;4957843;28;20519;-74
2021/06/13 14:22:36;;;;;;;6.10;2.00;;;;;;;25.28;31.95;99587.88;4961188;28;20035;-74
2021/06/13 14:25:01;;;;;;;3.42;1.10;;;;;;;25.22;32.34;99593.59;4961502;28;20026;-74
2021/06/13 14:27:27;;;;;;;6.18;1.40;;;;;;;24.49;32.85;99592.97;4961213;28;20042;-74
2021/06/13 14:29:52;;;;;;;2.65;1.30;;;;;;;24.43;32.45;99586.25;4961754;28;20027;-74
2021/06/13 14:32:17;;;;;;;3.70;1.23;;;;;;;24.75;31.49;99584.19;4961137;28;20058;-74
2021/06/13 14:34:43;;;;;;;2.92;1.35;;;;;;;24.53;32.92;99589.16;4961138;28;20492;-74
2021/06/13 14:37:10;;;;;;;2.90;1.23;;;;;;;24.27;32.59;99599.56;4961065;28;20117;-74
2021/06/13 14:39:36;;;;;;;4.63;1.40;;;;;;;23.37;33.96;99596.09;4964743;28;20034;-74
2021/06/13 14:42:02;;;;;;;2.80;1.35;;;;;;;24.02;33.91;99588.72;4961487;28;20034;-74
2021/06/13 14:44:27;;;;;;;3.20;1.40;;;;;;;24.86;33.85;99581.75;4961031;28;21732;-74
2021/06/13 14:46:53;;;;;;;4.68;1.38;;;;;;;24.74;32.91;99582.50;4961044;28;20043;-74
2021/06/13 14:49:18;;;;;;;2.80;1.38;;;;;;;24.21;33.21;99589.31;4960972;28;20456;-74
2021/06/13 14:51:43;;;;;;;1.52;1.20;;;;;;;25.13;32.16;99583.56;4960938;28;20110;-74
2021/06/13 14:54:09;;;;;;;5.90;1.50;;;;;;;25.43;32.18;99577.22;4960733;28;20038;-74
2021/06/13 14:56:34;;;;;;;2.67;2.00;;;;;;;25.86;30.78;99577.84;4960495;28;20037;-74
2021/06/13 14:58:59;;;;;;;4.07;2.40;;;;;;;25.91;32.41;99558.94;4960993;28;20062;-74
2021/06/13 15:01:25;;;;;;;1.73;1.10;;;;;;;25.05;33.08;99575.25;4960452;28;20445;-74
2021/06/13 15:03:52;;;;;;;3.05;1.45;;;;;;;24.04;33.60;99576.28;4961165;28;20492;-74
2021/06/13 15:06:17;;;;;;;10.63;5.75;;;;;;;25.04;31.63;99562.91;4960694;28;20087;-74
2021/06/13 15:08:43;;;;;;;6.85;3.05;;;;;;;25.10;32.32;99565.22;4960746;28;20110;-74
2021/06/13 15:11:08;;;;;;;4.07;2.17;;;;;;;25.38;31.70;99565.13;4960596;28;20159;-74
2021/06/13 15:13:35;;;;;;;2.13;1.42;;;;;;;25.37;32.49;99565.19;4960314;28;20130;-73
2021/06/13 15:16:01;;;;;;;5.00;3.47;;;;;;;24.99;32.30;99565.03;4960409;28;20026;-74
2021/06/13 15:18:28;;;;;;;4.90;2.25;;;;;;;24.97;31.16;99564.28;4960139;28;20057;-74
2021/06/13 15:20:53;;;;;;;5.43;2.35;;;;;;;24.48;32.75;99559.47;4960479;28;20027;-76
2021/06/13 15:23:19;;;;;;;3.58;1.25;;;;;;;23.34;32.21;99568.84;4960227;28;20062;-76
2021/06/13 15:25:45;;;;;;;2.17;1.20;;;;;;;24.27;31.13;99562.47;4960478;28;20035;-76
2021/06/13 15:28:10;;;;;;;2.78;1.70;;;;;;;25.07;32.80;99560.13;4960151;28;20073;-76
2021/06/13 15:30:37;;;;;;;1.63;1.25;;;;;;;25.41;32.42;99555.25;4960252;28;20093;-76
2021/06/13 15:33:03;;;;;;;9.07;4.20;;;;;;;25.94;32.97;99558.75;4959380;28;20042;-75
2021/06/13 15:35:28;;;;;;;2.28;1.30;;;;;;;25.58;33.53;99557.63;4959752;28;20027;-76
2021/06/13 15:37:55;;;;;;;4.15;1.25;;;;;;;25.73;32.03;99545.97;4959928;28;20045;-76
2021/06/13 15:40:20;;;;;;;6.25;1.20;;;;;;;25.22;32.36;99547.66;4960289;28;20121;-76
2021/06/13 15:42:48;;;;;;;4.32;1.33;;;;;;;25.08;32.64;99554.69;4960013;28;20084;-76
2021/06/13 15:45:14;;;;;;;6.63;1.33;;;;;;;23.96;34.08;99557.34;4959939;28;20034;-75
2021/06/13 15:47:41;;;;;;;2.38;2.00;;;;;;;25.14;34.09;99558.75;4959669;28;20031;-77
2021/06/13 15:50:09;;;;;;;6.80;1.20;;;;;;;24.42;33.34;99557.16;4953821;28;20480;-76
2021/06/13 15:52:34;;;;;;;4.68;2.13;;;;;;;25.70;32.00;99551.47;4959884;28;20026;-76
2021/06/13 15:55:00;;;;;;;4.72;1.35;;;;;;;24.95;32.26;99547.59;4959642;28;20511;-77
2021/06/13 15:57:26;;;;;;;2.22;1.10;;;;;;;25.62;32.01;99548.47;4959631;28;20496;-76
2021/06/13 15:59:51;;;;;;;2.60;1.27;;;;;;;24.53;33.13;99552.06;4959518;28;20489;-75
2021/06/13 16:02:21;;;;;;;4.00;2.00;;;;;;;25.26;32.53;99552.66;4959405;28;20042;-76
2021/06/13 16:04:46;;;;;;;2.50;1.25;;;;;;;25.90;31.68;99552.78;4959634;28;20030;-76
2021/06/13 16:07:12;;;;;;;2.17;1.23;;;;;;;25.48;31.99;99551.22;4959301;28;20034;-76
2021/06/13 16:09:39;;;;;;;3.67;1.50;;;;;;;24.58;32.06;99550.84;4959404;28;20559;-76
2021/06/13 16:12:06;;;;;;;3.58;1.27;;;;;;;25.08;31.93;99548.56;4959298;28;20479;-76
2021/06/13 16:14:32;;;;;;;6.05;1.48;;;;;;;25.18;31.96;99543.50;4959180;28;20451;-75
2021/06/13 16:16:58;;;;;;;4.30;1.30;;;;;;;24.67;33.08;99548.56;4959253;28;20028;-76
2021/06/13 16:19:23;;;;;;;3.97;1.17;;;;;;;24.94;32.10;99545.91;4957780;28;20114;-75
2021/06/13 16:21:48;;;;;;;1.58;1.30;;;;;;;24.64;32.44;99549.59;4957699;28;20499;-76
2021/06/13 16:24:14;;;;;;;3.17;1.02;;;;;;;24.51;32.25;99548.66;4957411;28;20031;-75
2021/06/13 16:26:39;;;;;;;2.50;1.40;;;;;;;25.28;31.04;99539.28;4957097;28;20373;-76
2021/06/13 16:29:04;;;;;;;5.50;1.63;;;;;;;25.65;31.41;99542.97;4957514;28;20037;-76
2021/06/13 16:31:30;;;;;;;1.75;1.08;;;;;;;25.52;32.14;99532.31;4957326;28;20515;-76
2021/06/13 16:33:55;;;;;;;3.42;1.30;;;;;;;24.49;31.72;99535.50;4956445;28;20157;-76
2021/06/13 16:36:20;;;;;;;3.22;1.63;;;;;;;24.01;33.08;99528.78;4958911;28;21416;-77
2021/06/13 16:38:46;;;;;;;3.25;1.30;;;;;;;23.98;33.12;99527.19;4959123;28;20034;-75
2021/06/13 16:41:11;;;;;;;2.88;1.02;;;;;;;24.09;33.71;99521.22;4958111;28;20377;-74
2021/06/13 16:43:36;;;;;;;2.75;1.35;;;;;;;24.30;33.75;99519.88;4958997;28;20507;-73
2021/06/13 16:46:02;;;;;;;3.20;1.58;;;;;;;25.08;32.91;99514.06;4958953;28;20105;-73
2021/06/13 16:48:27;;;;;;;3.00;1.60;;;;;;;25.65;31.17;99519.09;4958840;28;20035;-73
2021/06/13 16:50:53;;;;;;;7.97;2.63;;;;;;;25.71;31.92;99520.47;4958530;28;20035;-74
2021/06/13 16:53:18;;;;;;;3.20;1.38;;;;;;;25.12;33.29;99518.22;4957098;28;20506;-74
2021/06/13 16:55:44;;;;;;;1.88;1.50;;;;;;;25.76;32.27;99519.22;4956894;28;20035;-73
2021/06/13 16:58:09;;;;;;;4.40;1.40;;;;;;;25.82;31.84;99529.44;4957246;28;20022;-74
2021/06/13 17:00:34;;;;;;;2.08;1.10;;;;;;;25.81;31.71;99533.03;4956932;28;20058;-73
2021/06/13 17:03:03;;;;;;;4.25;1.30;;;;;;;26.06;32.43;99515.38;4956897;28;20035;-70
2021/06/13 17:05:29;;;;;;;3.65;1.42;;;;;;;25.69;31.57;99522.38;4957050;28;20023;-70
2021/06/13 17:07:55;;;;;;;2.08;1.20;;;;;;;25.21;31.64;99517.63;4958039;28;20031;-70
2021/06/13 17:10:20;;;;;;;3.42;1.50;;;;;;;25.11;31.41;99521.84;4958509;28;20472;-70
2021/06/13 17:12:46;;;;;;;4.55;1.20;;;;;;;25.31;31.59;99521.34;4958449;28;20077;-70
2021/06/13 17:15:14;;;;;;;4.35;1.20;;;;;;;25.02;31.76;99520.59;4958889;28;20103;-70
2021/06/13 17:17:39;;;;;;;4.13;1.20;;;;;;;24.79;32.00;99521.25;4958519;28;20038;-70
2021/06/13 17:20:06;;;;;;;5.90;1.38;;;;;;;24.44;32.90;99520.84;4952408;28;20038;-70
2021/06/13 17:22:33;;;;;;;2.30;1.30;;;;;;;24.21;33.84;99531.03;4958204;28;20532;-70
2021/06/13 17:25:01;;;;;;;4.00;1.30;;;;;;;24.10;34.64;99528.22;4958682;28;20023;-74
2021/06/13 17:27:30;;;;;;;5.55;1.80;;;;;;;23.93;33.49;99525.75;4957951;28;20090;-74
2021/06/13 17:29:56;;;;;;;2.33;1.25;;;;;;;23.94;34.03;99527.47;4958473;28;20043;-74
2021/06/13 17:32:22;;;;;;;1.85;1.38;;;;;;;24.17;34.19;99524.22;4958433;28;20540;-74
2021/06/13 17:34:47;;;;;;;5.30;1.17;;;;;;;24.48;33.54;99527.66;4958360;28;20035;-74
2021/06/13 17:37:16;;;;;;;5.40;1.67;;;;;;;23.81;33.33;99528.19;4958103;28;20049;-74
2021/06/13 17:39:41;;;;;;;7.38;1.40;;;;;;;23.61;33.82;99517.94;4958330;28;20126;-74
2021/06/13 17:42:07;;;;;;;2.58;1.48;;;;;;;23.89;34.32;99516.31;4952455;28;20181;-71
2021/06/13 17:44:32;;;;;;;4.68;1.48;;;;;;;23.62;35.41;99524.94;4958225;28;21193;-70
2021/06/13 17:46:58;;;;;;;1.75;1.25;;;;;;;23.99;34.87;99509.50;4958158;28;20026;-70
2021/06/13 17:49:24;;;;;;;1.65;1.42;;;;;;;23.76;33.40;99519.69;4958419;28;20492;-70
2021/06/13 17:51:51;;;;;;;3.05;1.35;;;;;;;23.84;34.41;99525.38;4958218;28;20054;-70
2021/06/13 17:54:16;;;;;;;1.73;1.33;;;;;;;23.82;34.30;99519.31;4958599;28;20384;-72
2021/06/13 17:56:44;;;;;;;4.07;1.40;;;;;;;24.16;33.45;99522.53;4959778;28;20059;-75
2021/06/13 17:59:11;;;;;;;2.35;1.40;;;;;;;23.93;34.86;99517.81;4961794;28;20039;-75
2021/06/13 18:01:37;;;;;;;6.03;1.50;;;;;;;23.74;35.22;99518.94;4961748;28;20456;-73
2021/06/13 18:04:02;;;;;;;2.92;1.80;;;;;;;23.46;36.47;99510.91;4961742;28;20031;-73
2021/06/13 18:06:27;;;;;;;2.78;1.33;;;;;;;23.27;35.64;99517.28;4961612;28;20027;-73
2021/06/13 18:08:52;;;;;;;3.90;1.63;;;;;;;23.03;35.04;99516.06;4961696;28;20515;-73
2021/06/13 18:11:19;;;;;;;3.03;1.80;;;;;;;23.20;35.88;99510.63;4961748;28;20058;-73
2021/06/13 18:13:45;;;;;;;1.75;1.30;;;;;;;22.97;36.84;99514.63;4961613;28;20035;-73
2021/06/13 18:16:11;;;;;;;4.13;1.67;;;;;;;22.94;37.32;99514.78;4961242;28;20034;-73
2021/06/13 18:18:41;;;;;;;2.58;1.25;;;;;;;22.93;38.89;99521.00;4961638;28;20042;-73
2021/06/13 18:21:08;;;;;;;4.35;1.60;;;;;;;22.66;39.38;99520.72;4961707;28;20034;-73
2021/06/13 18:23:34;;;;;;;5.03;2.13;;;;;;;22.45;40.80;99511.38;4961364;28;20522;-73
2021/06/13 18:26:00;;;;;;;4.28;1.50;;;;;;;22.46;40.56;99523.63;4961340;28;20039;-73
2021/06/13 18:28:25;;;;;;;7.28;1.70;;;;;;;22.08;41.93;99529.16;4961329;28;20034;-73
2021/06/13 18:30:51;;;;;;;2.28;1.45;;;;;;;21.80;42.29;99530.59;4961470;28;20038;-70
2021/06/13 18:33:16;;;;;;;3.90;1.60;;;;;;;21.67;43.70;99534.81;4961413;28;20065;-70
2021/06/13 18:35:42;;;;;;;3.65;1.90;;;;;;;21.38;44.86;99530.16;4961133;28;20066;-70
2021/06/13 18:38:08;;;;;;;9.07;1.90;;;;;;;21.33;45.33;99529.53;4960947;28;20031;-70
2021/06/13 18:40:35;;;;;;;7.78;1.80;;;;;;;20.94;46.57;99528.75;4961044;28;20361;-70
2021/06/13 18:43:00;;;;;;;2.83;1.67;;;;;;;20.77;47.21;99526.91;4961220;28;20071;-69